createdAt,value
2023-04-03T00:00:40.876Z,25.63
2023-04-03T00:01:43.614Z,25.64
2023-04-03T00:02:46.464Z,25.65
2023-04-03T00:03:49.599Z,25.65
2023-04-03T00:04:52.119Z,25.67
2023-04-03T00:05:55.941Z,25.66
2023-04-03T00:06:58.433Z,25.67
2023-04-03T00:08:03.505Z,25.67
2023-04-03T00:09:08.702Z,25.67
2023-04-03T00:10:13.975Z,25.68
2023-04-03T00:11:17.343Z,25.69
2023-04-03T00:12:19.939Z,25.67
2023-04-03T00:13:23.239Z,25.67
2023-04-03T00:14:26.950Z,25.68
2023-04-03T00:15:29.775Z,25.69
2023-04-03T00:16:33.453Z,25.70
2023-04-03T00:17:36.191Z,25.71
2023-04-03T00:18:38.957Z,25.72
2023-04-03T00:19:41.723Z,25.72
2023-04-03T00:20:45.171Z,25.74
2023-04-03T00:21:47.881Z,25.73
2023-04-03T00:22:50.899Z,25.76
2023-04-03T00:23:53.370Z,25.75
2023-04-03T00:24:57.049Z,25.76
2023-04-03T00:25:59.600Z,25.76
2023-04-03T00:27:03.891Z,25.76
2023-04-03T00:28:07.840Z,25.76
2023-04-03T00:29:10.752Z,25.77
2023-04-03T00:30:15.891Z,25.77
2023-04-03T00:31:18.446Z,25.77
2023-04-03T00:32:21.170Z,25.76
2023-04-03T00:33:24.924Z,25.76
2023-04-03T00:34:29.393Z,25.77
2023-04-03T00:35:32.459Z,25.76
2023-04-03T00:36:35.405Z,25.78
2023-04-03T00:37:38.682Z,25.78
2023-04-03T00:38:42.344Z,25.78
2023-04-03T00:39:45.806Z,25.77
2023-04-03T00:40:49.052Z,25.78
2023-04-03T00:41:53.462Z,25.77
2023-04-03T00:42:59.275Z,25.77
2023-04-03T00:44:23.577Z,25.77
2023-04-03T00:45:37.839Z,25.76
2023-04-03T00:46:40.880Z,25.75
2023-04-03T00:47:45.366Z,25.75
2023-04-03T00:48:49.517Z,25.73
2023-04-03T00:49:53.338Z,25.73
2023-04-03T00:50:56.256Z,25.72
2023-04-03T00:51:59.509Z,25.73
2023-04-03T00:53:03.187Z,25.73
2023-04-03T00:54:06.134Z,25.75
2023-04-03T00:55:10.367Z,25.74
2023-04-03T00:56:15.030Z,25.75
2023-04-03T00:57:18.046Z,25.75
2023-04-03T00:58:21.490Z,25.76
2023-04-03T00:59:30.531Z,25.76
2023-04-03T01:00:34.949Z,25.75
2023-04-03T01:01:38.919Z,25.76
2023-04-03T01:02:43.706Z,25.76
2023-04-03T01:03:47.097Z,25.76
2023-04-03T01:04:50.723Z,25.76
2023-04-03T01:05:53.841Z,25.76
2023-04-03T01:06:58.386Z,25.76
2023-04-03T01:08:01.247Z,25.77
2023-04-03T01:09:04.804Z,25.77
2023-04-03T01:10:10.763Z,25.77
2023-04-03T01:11:13.327Z,25.77
2023-04-03T01:12:24.541Z,25.78
2023-04-03T01:14:43.193Z,25.89
2023-04-03T01:15:46.505Z,25.79
2023-04-03T01:16:55.140Z,25.78
2023-04-03T01:17:58.414Z,25.77
2023-04-03T01:19:01.478Z,25.78
2023-04-03T01:20:30.995Z,25.79
2023-04-03T01:21:56.453Z,25.78
2023-04-03T01:23:09.030Z,25.78
2023-04-03T01:24:27.880Z,25.78
2023-04-03T01:25:30.825Z,25.78
2023-04-03T01:26:34.500Z,25.77
2023-04-03T01:27:39.339Z,25.76
2023-04-03T01:28:42.145Z,25.76
2023-04-03T01:29:46.411Z,25.75
2023-04-03T01:31:10.872Z,25.73
2023-04-03T01:32:15.210Z,25.75
2023-04-03T01:33:19.519Z,25.75
2023-04-03T01:34:23.345Z,25.75
2023-04-03T01:35:26.101Z,25.76
2023-04-03T01:36:30.460Z,25.75
2023-04-03T01:37:33.171Z,25.75
2023-04-03T01:38:36.078Z,25.76
2023-04-03T01:39:41.570Z,25.76
2023-04-03T01:40:44.609Z,25.78
2023-04-03T01:41:48.581Z,25.78
2023-04-03T01:42:53.685Z,25.79
2023-04-03T01:43:56.788Z,25.79
2023-04-03T01:45:01.537Z,25.80
2023-04-03T01:46:05.455Z,25.79
2023-04-03T01:47:10.521Z,25.79
2023-04-03T01:48:14.350Z,25.79
2023-04-03T01:49:16.962Z,25.81
2023-04-03T01:50:20.810Z,25.80
2023-04-03T01:51:23.853Z,25.81
2023-04-03T01:52:27.619Z,25.80
2023-04-03T01:53:30.138Z,25.80
2023-04-03T01:54:33.617Z,25.81
2023-04-03T01:55:37.296Z,25.80
2023-04-03T01:56:40.295Z,25.81
2023-04-03T01:57:43.886Z,25.81
2023-04-03T01:58:47.205Z,25.80
2023-04-03T01:59:50.289Z,25.81
2023-04-03T02:00:55.077Z,25.80
2023-04-03T02:01:57.817Z,25.81
2023-04-03T02:03:01.873Z,25.81
2023-04-03T02:04:06.055Z,25.82
2023-04-03T02:05:09.761Z,25.81
2023-04-03T02:06:13.023Z,25.82
2023-04-03T02:07:15.751Z,25.81
2023-04-03T02:08:19.772Z,25.80
2023-04-03T02:09:24.860Z,25.82
2023-04-03T02:10:30.470Z,25.83
2023-04-03T02:11:33.400Z,25.83
2023-04-03T02:12:38.214Z,25.84
2023-04-03T02:13:43.235Z,25.85
2023-04-03T02:14:46.206Z,25.85
2023-04-03T02:15:48.898Z,25.87
2023-04-03T02:16:53.203Z,25.87
2023-04-03T02:17:57.646Z,25.87
2023-04-03T02:19:00.888Z,25.88
2023-04-03T02:20:05.527Z,25.87
2023-04-03T02:21:09.208Z,25.87
2023-04-03T02:22:13.293Z,25.86
2023-04-03T02:23:17.737Z,25.87
2023-04-03T02:24:21.419Z,25.87
2023-04-03T02:25:24.324Z,25.87
2023-04-03T02:26:28.684Z,25.86
2023-04-03T02:27:32.250Z,25.87
2023-04-03T02:28:35.956Z,25.87
2023-04-03T02:29:38.814Z,25.87
2023-04-03T02:30:42.051Z,25.87
2023-04-03T02:31:47.486Z,25.87
2023-04-03T02:32:51.732Z,25.88
2023-04-03T02:33:55.732Z,25.86
2023-04-03T02:34:58.901Z,25.87
2023-04-03T02:36:02.057Z,25.86
2023-04-03T02:37:05.695Z,25.88
2023-04-03T02:38:09.447Z,25.87
2023-04-03T02:39:13.305Z,25.88
2023-04-03T02:40:16.688Z,25.87
2023-04-03T02:41:19.490Z,25.88
2023-04-03T02:42:25.100Z,25.87
2023-04-03T02:43:28.048Z,25.87
2023-04-03T02:44:31.356Z,25.83
2023-04-03T02:45:35.661Z,25.83
2023-04-03T02:46:39.036Z,25.88
2023-04-03T02:47:41.655Z,25.88
2023-04-03T02:48:46.158Z,25.88
2023-04-03T02:49:49.054Z,25.89
2023-04-03T02:50:51.972Z,25.89
2023-04-03T02:52:07.234Z,25.91
2023-04-03T02:53:09.911Z,25.90
2023-04-03T02:54:14.842Z,25.91
2023-04-03T02:55:19.206Z,25.90
2023-04-03T02:56:23.860Z,25.90
2023-04-03T02:57:26.697Z,25.89
2023-04-03T02:58:30.511Z,25.89
2023-04-03T02:59:34.904Z,25.88
2023-04-03T03:00:37.750Z,25.90
2023-04-03T03:01:40.519Z,25.89
2023-04-03T03:02:43.586Z,25.89
2023-04-03T03:03:47.858Z,25.89
2023-04-03T03:04:51.783Z,25.90
2023-04-03T03:06:05.187Z,25.89
2023-04-03T03:07:08.837Z,25.91
2023-04-03T03:08:11.387Z,25.89
2023-04-03T03:09:14.570Z,25.90
2023-04-03T03:10:19.364Z,25.89
2023-04-03T03:11:24.617Z,25.89
2023-04-03T03:12:28.567Z,25.89
2023-04-03T03:13:32.725Z,25.89
2023-04-03T03:14:37.713Z,25.89
2023-04-03T03:15:40.658Z,25.90
2023-04-03T03:16:43.138Z,25.89
2023-04-03T03:17:47.258Z,25.89
2023-04-03T03:18:51.588Z,25.90
2023-04-03T03:19:54.208Z,25.89
2023-04-03T03:20:57.737Z,25.90
2023-04-03T03:22:01.098Z,25.90
2023-04-03T03:23:03.700Z,25.85
2023-04-03T03:24:06.835Z,25.85
2023-04-03T03:25:10.914Z,25.89
2023-04-03T03:26:13.575Z,25.90
2023-04-03T03:27:19.283Z,25.90
2023-04-03T03:28:23.401Z,25.90
2023-04-03T03:29:27.352Z,25.90
2023-04-03T03:30:30.760Z,25.90
2023-04-03T03:31:33.560Z,25.90
2023-04-03T03:32:37.785Z,25.89
2023-04-03T03:33:41.759Z,25.89
2023-04-03T03:34:45.315Z,25.90
2023-04-03T03:35:48.659Z,25.89
2023-04-03T03:36:52.451Z,25.89
2023-04-03T03:37:55.781Z,25.90
2023-04-03T03:39:01.143Z,25.90
2023-04-03T03:40:05.621Z,25.91
2023-04-03T03:41:10.178Z,25.92
2023-04-03T03:42:13.909Z,25.91
2023-04-03T03:43:18.540Z,25.90
2023-04-03T03:44:23.033Z,25.92
2023-04-03T03:45:25.954Z,25.89
2023-04-03T03:46:28.587Z,25.91
2023-04-03T03:47:31.434Z,25.91
2023-04-03T03:48:34.725Z,25.90
2023-04-03T03:49:37.472Z,25.90
2023-04-03T03:50:41.020Z,25.89
2023-04-03T03:51:44.363Z,25.91
2023-04-03T03:52:48.650Z,25.90
2023-04-03T03:53:52.969Z,25.91
2023-04-03T03:54:56.319Z,25.90
2023-04-03T03:55:59.491Z,25.89
2023-04-03T03:57:03.106Z,25.90
2023-04-03T03:58:06.676Z,25.91
2023-04-03T03:59:13.335Z,25.90
2023-04-03T04:00:16.911Z,25.90
2023-04-03T04:01:22.672Z,25.89
2023-04-03T04:02:26.887Z,25.89
2023-04-03T04:03:30.146Z,25.90
2023-04-03T04:04:33.137Z,25.92
2023-04-03T04:05:37.680Z,25.91
2023-04-03T04:06:41.621Z,25.90
2023-04-03T04:07:45.720Z,25.90
2023-04-03T04:08:49.998Z,25.90
2023-04-03T04:09:52.623Z,25.90
2023-04-03T04:10:55.428Z,25.90
2023-04-03T04:11:58.883Z,25.91
2023-04-03T04:13:01.632Z,25.92
2023-04-03T04:14:04.295Z,25.92
2023-04-03T04:15:08.645Z,25.91
2023-04-03T04:16:11.329Z,25.92
2023-04-03T04:17:15.319Z,25.93
2023-04-03T04:18:21.054Z,25.93
2023-04-03T04:19:24.662Z,25.93
2023-04-03T04:20:27.263Z,25.93
2023-04-03T04:21:29.926Z,25.93
2023-04-03T04:22:33.194Z,25.94
2023-04-03T04:23:37.110Z,25.94
2023-04-03T04:24:41.607Z,25.94
2023-04-03T04:25:48.657Z,25.94
2023-04-03T04:26:51.757Z,25.94
2023-04-03T04:27:54.597Z,25.94
2023-04-03T04:28:58.654Z,25.94
2023-04-03T04:30:02.464Z,25.94
2023-04-03T04:31:05.277Z,25.94
2023-04-03T04:32:10.337Z,25.94
2023-04-03T04:33:14.597Z,25.94
2023-04-03T04:34:18.107Z,25.94
2023-04-03T04:35:22.491Z,25.95
2023-04-03T04:36:27.219Z,25.94
2023-04-03T04:37:30.980Z,25.94
2023-04-03T04:38:37.494Z,25.95
2023-04-03T04:39:42.972Z,25.94
2023-04-03T04:40:47.960Z,25.95
2023-04-03T04:41:52.496Z,25.95
2023-04-03T04:42:55.830Z,25.96
2023-04-03T04:43:59.303Z,25.95
2023-04-03T04:45:03.304Z,25.94
2023-04-03T04:46:10.762Z,25.94
2023-04-03T04:47:15.337Z,25.95
2023-04-03T04:48:19.119Z,25.95
2023-04-03T04:49:23.311Z,25.94
2023-04-03T04:50:26.241Z,25.94
2023-04-03T04:51:35.073Z,25.94
2023-04-03T04:52:34.301Z,25.94
2023-04-03T04:53:40.829Z,25.93
2023-04-03T04:54:45.145Z,25.94
2023-04-03T04:55:48.323Z,25.94
2023-04-03T04:56:53.492Z,25.93
2023-04-03T04:57:57.077Z,25.93
2023-04-03T04:59:00.915Z,25.94
2023-04-03T05:00:05.072Z,25.95
2023-04-03T05:01:09.247Z,25.94
2023-04-03T05:02:13.752Z,25.94
2023-04-03T05:03:17.431Z,25.95
2023-04-03T05:04:21.382Z,25.95
2023-04-03T05:05:26.195Z,25.95
2023-04-03T05:06:30.687Z,25.96
2023-04-03T05:07:33.769Z,25.95
2023-04-03T05:08:38.013Z,25.95
2023-04-03T05:09:42.674Z,25.95
2023-04-03T05:10:46.271Z,25.95
2023-04-03T05:11:50.836Z,25.95
2023-04-03T05:12:55.340Z,25.94
2023-04-03T05:13:57.820Z,25.95
2023-04-03T05:15:00.722Z,25.95
2023-04-03T05:16:05.135Z,25.96
2023-04-03T05:17:08.446Z,25.95
2023-04-03T05:18:13.362Z,25.95
2023-04-03T05:19:17.092Z,25.94
2023-04-03T05:20:19.986Z,25.94
2023-04-03T05:21:25.607Z,25.94
2023-04-03T05:22:28.696Z,25.93
2023-04-03T05:23:34.888Z,25.94
2023-04-03T05:24:38.159Z,25.94
2023-04-03T05:25:41.973Z,25.93
2023-04-03T05:26:45.646Z,25.92
2023-04-03T05:27:49.377Z,25.92
2023-04-03T05:28:52.553Z,25.92
2023-04-03T05:29:57.048Z,25.93
2023-04-03T05:30:59.701Z,25.93
2023-04-03T05:32:05.350Z,25.92
2023-04-03T05:33:08.740Z,25.93
2023-04-03T05:34:14.534Z,25.91
2023-04-03T05:35:19.064Z,25.92
2023-04-03T05:36:24.159Z,25.91
2023-04-03T05:37:29.960Z,25.91
2023-04-03T05:38:33.485Z,25.91
2023-04-03T05:39:38.741Z,25.91
2023-04-03T05:40:43.565Z,25.90
2023-04-03T05:41:46.681Z,25.90
2023-04-03T05:42:50.064Z,25.90
2023-04-03T05:43:53.563Z,25.91
2023-04-03T05:44:56.956Z,25.91
2023-04-03T05:46:00.971Z,25.90
2023-04-03T05:47:04.170Z,25.90
2023-04-03T05:48:07.396Z,25.89
2023-04-03T05:49:10.896Z,25.90
2023-04-03T05:50:13.720Z,25.90
2023-04-03T05:52:33.950Z,26.01
2023-04-03T05:53:39.875Z,25.88
2023-04-03T05:54:43.544Z,25.89
2023-04-03T05:55:48.119Z,25.89
2023-04-03T05:56:51.366Z,25.89
2023-04-03T05:57:55.706Z,25.88
2023-04-03T05:58:59.533Z,25.89
2023-04-03T06:00:07.048Z,25.89
2023-04-03T06:01:13.046Z,25.90
2023-04-03T06:02:18.617Z,25.91
2023-04-03T06:03:22.229Z,25.90
2023-04-03T06:04:25.391Z,25.92
2023-04-03T06:05:28.859Z,25.91
2023-04-03T06:08:02.531Z,26.02
2023-04-03T06:09:08.617Z,25.92
2023-04-03T06:10:14.745Z,25.89
2023-04-03T06:11:18.552Z,25.88
2023-04-03T06:12:22.504Z,25.89
2023-04-03T06:13:30.054Z,25.88
2023-04-03T06:14:32.545Z,25.88
2023-04-03T06:15:35.887Z,25.89
2023-04-03T06:16:39.862Z,25.88
2023-04-03T06:17:46.372Z,25.87
2023-04-03T06:18:49.906Z,25.85
2023-04-03T06:19:53.719Z,25.86
2023-04-03T06:20:58.887Z,25.86
2023-04-03T06:22:03.352Z,25.85
2023-04-03T06:23:08.738Z,25.85
2023-04-03T06:24:15.597Z,25.85
2023-04-03T06:25:19.327Z,25.84
2023-04-03T06:26:22.743Z,25.84
2023-04-03T06:27:25.773Z,25.78
2023-04-03T06:28:29.145Z,25.76
2023-04-03T06:29:32.086Z,25.76
2023-04-03T06:30:35.695Z,25.77
2023-04-03T06:31:39.266Z,25.78
2023-04-03T06:32:42.149Z,25.79
2023-04-03T06:33:45.288Z,25.79
2023-04-03T06:34:48.268Z,25.80
2023-04-03T06:35:53.766Z,25.80
2023-04-03T06:36:56.211Z,25.79
2023-04-03T06:37:58.972Z,25.79
2023-04-03T06:39:02.158Z,25.79
2023-04-03T06:40:05.852Z,25.79
2023-04-03T06:41:08.996Z,25.80
2023-04-03T06:42:11.577Z,25.81
2023-04-03T06:43:15.826Z,25.79
2023-04-03T06:44:18.989Z,25.78
2023-04-03T06:45:22.092Z,25.78
2023-04-03T06:46:26.126Z,25.79
2023-04-03T06:47:28.918Z,25.79
2023-04-03T06:48:32.399Z,25.79
2023-04-03T06:49:36.952Z,25.81
2023-04-03T06:50:40.083Z,25.80
2023-04-03T06:51:43.768Z,25.81
2023-04-03T06:52:47.545Z,25.81
2023-04-03T06:53:52.043Z,25.81
2023-04-03T06:54:57.762Z,25.81
2023-04-03T06:56:00.236Z,25.81
2023-04-03T06:57:04.293Z,25.78
2023-04-03T06:58:07.558Z,25.78
2023-04-03T06:59:10.453Z,25.78
2023-04-03T07:00:16.725Z,25.70
2023-04-03T07:02:34.568Z,25.92
2023-04-03T07:03:38.829Z,25.82
2023-04-03T07:04:41.868Z,25.81
2023-04-03T07:05:45.282Z,25.81
2023-04-03T07:06:49.304Z,25.80
2023-04-03T07:07:52.384Z,25.81
2023-04-03T07:08:57.752Z,25.80
2023-04-03T07:10:01.630Z,25.81
2023-04-03T07:11:05.081Z,25.81
2023-04-03T07:12:07.643Z,25.80
2023-04-03T07:13:09.870Z,25.80
2023-04-03T07:14:12.918Z,25.78
2023-04-03T07:15:17.355Z,25.73
2023-04-03T07:16:20.169Z,25.71
2023-04-03T07:17:22.753Z,25.71
2023-04-03T07:18:26.187Z,25.72
2023-04-03T07:19:31.526Z,25.72
2023-04-03T07:20:35.161Z,25.73
2023-04-03T07:21:37.777Z,25.72
2023-04-03T07:22:41.106Z,25.73
2023-04-03T07:23:44.974Z,25.74
2023-04-03T07:24:49.989Z,25.75
2023-04-03T07:25:52.908Z,25.75
2023-04-03T07:26:58.096Z,25.75
2023-04-03T07:28:01.027Z,25.75
2023-04-03T07:29:04.405Z,25.77
2023-04-03T07:30:08.850Z,25.76
2023-04-03T07:31:14.781Z,25.73
2023-04-03T07:32:18.199Z,25.72
2023-04-03T07:33:22.491Z,25.71
2023-04-03T07:34:25.878Z,25.72
2023-04-03T07:35:28.676Z,25.72
2023-04-03T07:36:33.571Z,25.72
2023-04-03T07:37:36.455Z,25.73
2023-04-03T07:38:39.085Z,25.73
2023-04-03T07:39:46.587Z,25.73
2023-04-03T07:40:51.206Z,25.73
2023-04-03T07:41:56.701Z,25.73
2023-04-03T07:43:01.073Z,25.73
2023-04-03T07:44:05.137Z,25.72
2023-04-03T07:45:10.336Z,25.72
2023-04-03T07:46:13.328Z,25.71
2023-04-03T07:47:18.579Z,25.71
2023-04-03T07:48:23.409Z,25.70
2023-04-03T07:49:27.622Z,25.71
2023-04-03T07:50:32.407Z,25.70
2023-04-03T07:51:35.094Z,25.71
2023-04-03T07:52:37.813Z,25.71
2023-04-03T07:53:41.029Z,25.66
2023-04-03T07:54:45.419Z,25.66
2023-04-03T07:55:48.780Z,25.64
2023-04-03T07:56:51.527Z,25.65
2023-04-03T07:57:56.563Z,25.63
2023-04-03T07:59:00.148Z,25.64
2023-04-03T08:00:05.157Z,25.65
2023-04-03T08:01:09.993Z,25.64
2023-04-03T08:02:13.235Z,25.65
2023-04-03T08:03:18.214Z,25.66
2023-04-03T08:04:22.130Z,25.66
2023-04-03T08:05:25.858Z,25.66
2023-04-03T08:06:45.998Z,25.66
2023-04-03T08:07:39.251Z,25.67
2023-04-03T08:08:42.089Z,25.66
2023-04-03T08:09:51.781Z,25.66
2023-04-03T08:10:55.788Z,25.63
2023-04-03T08:11:59.084Z,25.62
2023-04-03T08:13:02.351Z,25.61
2023-04-03T08:14:05.947Z,25.62
2023-04-03T08:15:11.398Z,25.60
2023-04-03T08:16:20.415Z,25.60
2023-04-03T08:17:22.957Z,25.61
2023-04-03T08:18:27.266Z,25.59
2023-04-03T08:19:30.936Z,25.58
2023-04-03T08:20:35.111Z,25.59
2023-04-03T08:21:38.151Z,25.59
2023-04-03T08:22:42.761Z,25.57
2023-04-03T08:23:58.615Z,25.59
2023-04-03T08:25:02.385Z,25.59
2023-04-03T08:26:14.873Z,25.56
2023-04-03T08:27:20.816Z,25.55
2023-04-03T08:28:23.918Z,25.55
2023-04-03T08:29:29.630Z,25.56
2023-04-03T08:30:33.402Z,25.55
2023-04-03T08:31:39.470Z,25.57
2023-04-03T08:32:44.822Z,25.56
2023-04-03T08:33:48.190Z,25.56
2023-04-03T08:34:54.618Z,25.58
2023-04-03T08:35:59.147Z,25.55
2023-04-03T08:37:02.272Z,25.56
2023-04-03T08:38:06.555Z,25.56
2023-04-03T08:39:11.575Z,25.56
2023-04-03T08:40:16.417Z,25.58
2023-04-03T08:41:37.160Z,25.56
2023-04-03T08:42:44.490Z,25.54
2023-04-03T08:44:22.932Z,25.54
2023-04-03T08:45:41.353Z,25.53
2023-04-03T08:46:47.890Z,25.53
2023-04-03T08:47:58.164Z,25.49
2023-04-03T08:49:00.842Z,25.48
2023-04-03T08:50:16.882Z,25.47
2023-04-03T08:51:20.897Z,25.47
2023-04-03T08:52:42.728Z,25.47
2023-04-03T08:53:49.232Z,25.46
2023-04-03T08:54:55.623Z,25.46
2023-04-03T08:55:59.507Z,25.45
2023-04-03T08:57:05.271Z,25.45
2023-04-03T08:58:21.438Z,25.45
2023-04-03T08:59:30.275Z,25.45
2023-04-03T09:00:56.276Z,25.45
2023-04-03T09:02:00.212Z,25.46
2023-04-03T09:03:03.787Z,25.45
2023-04-03T09:05:44.483Z,25.53
2023-04-03T09:06:56.560Z,25.43
2023-04-03T09:08:22.475Z,25.42
2023-04-03T09:09:35.120Z,25.42
2023-04-03T09:10:38.202Z,25.41
2023-04-03T09:11:47.590Z,25.42
2023-04-03T09:14:18.561Z,25.51
2023-04-03T09:15:35.511Z,25.41
2023-04-03T09:16:49.393Z,25.40
2023-04-03T09:18:01.598Z,25.41
2023-04-03T09:19:21.073Z,25.41
2023-04-03T09:20:52.221Z,25.39
2023-04-03T09:21:57.356Z,25.41
2023-04-03T09:23:00.811Z,25.39
2023-04-03T09:24:04.430Z,25.40
2023-04-03T09:25:19.936Z,25.40
2023-04-03T09:26:28.957Z,25.39
2023-04-03T09:27:31.493Z,25.38
2023-04-03T09:28:42.942Z,25.38
2023-04-03T09:29:46.971Z,25.38
2023-04-03T09:30:49.630Z,25.39
2023-04-03T09:32:02.950Z,25.39
2023-04-03T09:33:07.838Z,25.39
2023-04-03T09:34:27.721Z,25.40
2023-04-03T09:35:44.759Z,25.41
2023-04-03T09:36:45.686Z,25.40
2023-04-03T09:37:51.551Z,25.40
2023-04-03T09:39:05.572Z,25.41
2023-04-03T09:40:37.154Z,25.41
2023-04-03T09:41:40.888Z,25.41
2023-04-03T09:42:48.957Z,25.41
2023-04-03T09:43:55.041Z,25.41
2023-04-03T09:45:01.180Z,25.39
2023-04-03T09:46:33.419Z,25.39
2023-04-03T09:47:38.127Z,25.39
2023-04-03T09:48:41.398Z,25.39
2023-04-03T09:49:46.083Z,25.39
2023-04-03T09:50:57.059Z,25.38
2023-04-03T09:52:04.773Z,25.39
2023-04-03T09:53:08.455Z,25.38
2023-04-03T09:54:28.505Z,25.38
2023-04-03T09:55:32.064Z,25.38
2023-04-03T09:56:36.421Z,25.39
2023-04-03T09:57:41.232Z,25.39
2023-04-03T09:58:50.449Z,25.39
2023-04-03T09:59:59.730Z,25.39
2023-04-03T10:01:04.199Z,25.39
2023-04-03T10:02:13.879Z,25.39
2023-04-03T10:03:35.745Z,25.39
2023-04-03T10:04:41.197Z,25.39
2023-04-03T10:05:44.066Z,25.39
2023-04-03T10:06:52.252Z,25.39
2023-04-03T10:08:15.868Z,25.40
2023-04-03T10:09:27.274Z,25.39
2023-04-03T10:10:30.737Z,25.39
2023-04-03T10:11:33.942Z,25.39
2023-04-03T10:12:36.875Z,25.38
2023-04-03T10:14:00.670Z,25.38
2023-04-03T10:15:07.726Z,25.40
2023-04-03T10:16:14.794Z,25.39
2023-04-03T10:17:21.243Z,25.39
2023-04-03T10:18:49.077Z,25.41
2023-04-03T10:19:56.953Z,25.39
2023-04-03T10:21:27.440Z,25.39
2023-04-03T10:22:51.777Z,25.39
2023-04-03T10:24:12.717Z,25.39
2023-04-03T10:25:33.571Z,25.38
2023-04-03T10:26:52.141Z,25.38
2023-04-03T10:28:00.341Z,25.36
2023-04-03T10:29:09.840Z,25.34
2023-04-03T10:30:39.632Z,25.35
2023-04-03T10:31:47.370Z,25.33
2023-04-03T10:32:59.915Z,25.34
2023-04-03T10:34:09.088Z,25.34
2023-04-03T10:35:27.524Z,25.34
2023-04-03T10:36:39.292Z,25.33
2023-04-03T10:38:00.762Z,25.34
2023-04-03T10:40:44.907Z,25.45
2023-04-03T10:42:13.361Z,25.34
2023-04-03T10:43:26.043Z,25.33
2023-04-03T10:44:53.176Z,25.34
2023-04-03T10:46:29.974Z,25.34
2023-04-03T10:47:39.842Z,25.34
2023-04-03T10:50:49.202Z,25.44
2023-04-03T10:51:57.236Z,25.33
2023-04-03T10:55:48.638Z,25.42
2023-04-03T10:57:10.867Z,25.32
2023-04-03T10:58:06.404Z,25.33
2023-04-03T10:59:15.673Z,25.33
2023-04-03T11:00:24.054Z,25.36
2023-04-03T11:01:29.782Z,25.37
2023-04-03T11:02:42.959Z,25.38
2023-04-03T11:03:47.995Z,25.38
2023-04-03T11:06:12.947Z,25.51
2023-04-03T11:07:20.375Z,25.43
2023-04-03T11:08:27.446Z,25.42
2023-04-03T11:09:36.821Z,25.43
2023-04-03T11:10:45.761Z,25.45
2023-04-03T11:11:49.887Z,25.45
2023-04-03T11:13:05.376Z,25.46
2023-04-03T11:14:31.065Z,25.46
2023-04-03T11:15:33.720Z,25.47
2023-04-03T11:16:50.991Z,25.47
2023-04-03T11:19:05.655Z,25.56
2023-04-03T11:20:19.902Z,25.47
2023-04-03T11:22:57.404Z,25.60
2023-04-03T11:24:01.387Z,25.49
2023-04-03T11:25:14.019Z,25.50
2023-04-03T11:26:19.114Z,25.50
2023-04-03T11:27:23.705Z,25.51
2023-04-03T11:28:26.968Z,25.52
2023-04-03T11:29:40.029Z,25.54
2023-04-03T11:31:02.389Z,25.55
2023-04-03T11:32:13.055Z,25.55
2023-04-03T11:33:36.901Z,25.55
2023-04-03T11:34:45.727Z,25.55
2023-04-03T11:35:50.641Z,25.54
2023-04-03T11:36:55.644Z,25.54
2023-04-03T11:38:00.808Z,25.53
2023-04-03T11:39:34.673Z,25.52
2023-04-03T11:40:37.761Z,25.53
2023-04-03T11:41:41.088Z,25.52
2023-04-03T11:42:56.892Z,25.52
2023-04-03T11:44:05.158Z,25.51
2023-04-03T11:45:33.944Z,25.51
2023-04-03T11:46:55.629Z,25.51
2023-04-03T11:48:23.191Z,25.50
2023-04-03T11:49:33.552Z,25.50
2023-04-03T11:50:42.765Z,25.49
2023-04-03T11:51:48.775Z,25.50
2023-04-03T11:52:59.081Z,25.50
2023-04-03T11:55:45.011Z,25.61
2023-04-03T11:56:48.647Z,25.51
2023-04-03T11:58:02.875Z,25.50
2023-04-03T11:59:16.175Z,25.51
2023-04-03T12:02:08.163Z,25.63
2023-04-03T12:04:51.153Z,25.63
2023-04-03T12:06:00.896Z,25.53
2023-04-03T12:07:15.501Z,25.52
2023-04-03T12:08:44.726Z,25.52
2023-04-03T12:09:52.330Z,25.52
2023-04-03T12:11:13.854Z,25.53
2023-04-03T12:12:36.017Z,25.52
2023-04-03T12:13:57.013Z,25.52
2023-04-03T12:16:43.651Z,25.62
2023-04-03T12:17:47.441Z,25.51
2023-04-03T12:18:57.056Z,25.49
2023-04-03T12:20:00.912Z,25.49
2023-04-03T12:21:04.078Z,25.50
2023-04-03T12:22:07.888Z,25.46
2023-04-03T12:23:34.199Z,25.51
2023-04-03T12:24:40.249Z,25.51
2023-04-03T12:25:50.644Z,25.52
2023-04-03T12:27:18.229Z,25.52
2023-04-03T12:28:22.240Z,25.52
2023-04-03T12:29:35.070Z,25.52
2023-04-03T12:30:38.227Z,25.52
2023-04-03T12:31:48.569Z,25.51
2023-04-03T12:33:18.622Z,25.50
2023-04-03T12:34:29.076Z,25.51
2023-04-03T12:35:41.200Z,25.51
2023-04-03T12:37:03.436Z,25.52
2023-04-03T12:38:28.216Z,25.52
2023-04-03T12:39:56.200Z,25.51
2023-04-03T12:41:26.654Z,25.51
2023-04-03T12:44:27.130Z,25.61
2023-04-03T12:45:30.572Z,25.49
2023-04-03T12:46:44.039Z,25.48
2023-04-03T12:47:46.490Z,25.47
2023-04-03T12:48:57.774Z,25.47
2023-04-03T12:50:00.462Z,25.47
2023-04-03T12:51:04.697Z,25.48
2023-04-03T12:52:23.992Z,25.48
2023-04-03T12:53:34.041Z,25.48
2023-04-03T12:54:38.555Z,25.48
2023-04-03T12:55:41.533Z,25.49
2023-04-03T12:58:23.657Z,25.61
2023-04-03T12:59:27.477Z,25.50
2023-04-03T13:00:35.441Z,25.49
2023-04-03T13:01:38.782Z,25.48
2023-04-03T13:02:55.878Z,25.48
2023-04-03T13:03:58.802Z,25.48
2023-04-03T13:05:07.978Z,25.50
2023-04-03T13:06:13.869Z,25.50
2023-04-03T13:07:34.915Z,25.51
2023-04-03T13:08:38.471Z,25.51
2023-04-03T13:09:42.254Z,25.51
2023-04-03T13:11:01.099Z,25.51
2023-04-03T13:12:12.755Z,25.52
2023-04-03T13:13:15.963Z,25.51
2023-04-03T13:17:00.189Z,25.61
2023-04-03T13:18:03.336Z,25.49
2023-04-03T13:19:05.757Z,25.49
2023-04-03T13:21:31.507Z,25.61
2023-04-03T13:22:39.137Z,25.49
2023-04-03T13:23:44.609Z,25.50
2023-04-03T13:24:47.386Z,25.50
2023-04-03T13:25:51.221Z,25.51
2023-04-03T13:26:54.657Z,25.51
2023-04-03T13:29:05.468Z,25.52
2023-04-03T13:31:35.038Z,25.62
2023-04-03T13:32:39.867Z,25.51
2023-04-03T13:33:46.785Z,25.51
2023-04-03T13:34:51.332Z,25.51
2023-04-03T13:36:07.997Z,25.51
2023-04-03T13:37:27.699Z,25.52
2023-04-03T13:38:32.701Z,25.51
2023-04-03T13:39:40.460Z,25.51
2023-04-03T13:40:54.631Z,25.51
2023-04-03T13:42:01.717Z,25.50
2023-04-03T13:43:30.268Z,25.51
2023-04-03T13:44:39.170Z,25.50
2023-04-03T13:45:47.384Z,25.49
2023-04-03T13:48:27.340Z,25.58
2023-04-03T13:49:41.228Z,25.47
2023-04-03T13:52:36.742Z,25.56
2023-04-03T13:53:52.097Z,25.45
2023-04-03T13:55:00.170Z,25.44
2023-04-03T13:56:08.831Z,25.44
2023-04-03T13:57:16.694Z,25.44
2023-04-03T13:58:24.597Z,25.44
2023-04-03T13:59:32.484Z,25.43
2023-04-03T14:02:19.658Z,25.53
2023-04-03T14:03:28.088Z,25.44
2023-04-03T14:04:32.725Z,25.42
2023-04-03T14:05:36.470Z,25.42
2023-04-03T14:06:40.015Z,25.42
2023-04-03T14:07:43.875Z,25.42
2023-04-03T14:08:49.958Z,25.43
2023-04-03T14:09:53.971Z,25.43
2023-04-03T14:10:57.770Z,25.44
2023-04-03T14:12:05.407Z,25.44
2023-04-03T14:13:12.530Z,25.44
2023-04-03T14:15:32.184Z,25.55
2023-04-03T14:16:39.194Z,25.46
2023-04-03T14:17:43.691Z,25.46
2023-04-03T14:18:47.145Z,25.47
2023-04-03T14:19:50.405Z,25.47
2023-04-03T14:20:53.026Z,25.47
2023-04-03T14:21:56.451Z,25.49
2023-04-03T14:22:59.132Z,25.49
2023-04-03T14:24:01.889Z,25.50
2023-04-03T14:25:05.800Z,25.51
2023-04-03T14:27:32.976Z,25.63
2023-04-03T14:28:35.440Z,25.51
2023-04-03T14:29:38.909Z,25.51
2023-04-03T14:30:43.515Z,25.51
2023-04-03T14:31:47.259Z,25.51
2023-04-03T14:32:51.530Z,25.51
2023-04-03T14:33:55.981Z,25.52
2023-04-03T14:34:59.426Z,25.54
2023-04-03T14:36:19.110Z,25.54
2023-04-03T14:37:25.077Z,25.54
2023-04-03T14:38:30.081Z,25.54
2023-04-03T14:39:34.408Z,25.53
2023-04-03T14:40:37.070Z,25.53
2023-04-03T14:41:40.181Z,25.53
2023-04-03T14:42:42.724Z,25.54
2023-04-03T14:43:46.472Z,25.54
2023-04-03T14:44:51.561Z,25.53
2023-04-03T14:45:54.700Z,25.53
2023-04-03T14:46:58.529Z,25.55
2023-04-03T14:48:01.826Z,25.55
2023-04-03T14:49:08.430Z,25.54
2023-04-03T14:50:15.043Z,25.53
2023-04-03T14:52:59.575Z,25.53
2023-04-03T14:54:03.572Z,25.53
2023-04-03T14:55:06.688Z,25.54
2023-04-03T14:56:13.530Z,25.53
2023-04-03T14:57:16.958Z,25.53
2023-04-03T14:58:20.696Z,25.54
2023-04-03T14:59:23.656Z,25.53
2023-04-03T15:00:26.408Z,25.54